Time;durP1;ratioP1;P1;durP2;ratioP2;P2;SDS_P1;SDS_P2;PMS_P1;PMS_P2;Temp;Humidity;BMP_temperature;BMP_pressure;BME280_temperature;BME280_humidity;BME280_pressure;Samples;Min_cycle;Max_cycle;Signal;HPM_P1;HPM_P2
2024/01/28 00:00:42;;;;;;;1999.90;999.90;;;2.90;99.90;;;;;;5014195;28;20641;-67
2024/01/28 00:03:08;;;;;;;1999.90;999.90;;;2.80;99.90;;;;;;5013810;28;20207;-67
2024/01/28 00:05:34;;;;;;;1999.90;999.90;;;3.60;99.90;;;;;;5013816;28;20418;-67
2024/01/28 00:08:00;;;;;;;1999.90;999.90;;;2.80;99.90;;;;;;5013407;28;20217;-66
2024/01/28 00:10:25;;;;;;;1999.90;999.90;;;2.80;99.90;;;;;;5013748;28;20169;-66
2024/01/28 00:12:51;;;;;;;1999.90;999.90;;;2.80;99.90;;;;;;5013667;28;20950;-68
2024/01/28 00:15:17;;;;;;;1999.90;999.90;;;2.80;99.90;;;;;;5013583;28;20227;-68
2024/01/28 00:17:43;;;;;;;1999.90;999.90;;;3.20;99.90;;;;;;5013514;28;20224;-68
2024/01/28 00:20:09;;;;;;;1999.90;999.90;;;2.80;99.90;;;;;;5013868;28;20193;-67
2024/01/28 00:22:35;;;;;;;1999.90;999.90;;;2.70;99.90;;;;;;5013459;28;20172;-68
2024/01/28 00:25:00;;;;;;;1999.90;999.90;;;2.70;99.90;;;;;;5013403;28;20396;-67
2024/01/28 00:27:26;;;;;;;1999.90;999.90;;;2.60;99.90;;;;;;5012641;28;20188;-67
2024/01/28 00:29:51;;;;;;;1999.90;999.90;;;2.60;99.90;;;;;;5013301;28;20202;-67
2024/01/28 00:32:19;;;;;;;1999.90;999.90;;;2.60;99.90;;;;;;5013374;28;20706;-68
2024/01/28 00:34:44;;;;;;;1999.90;999.90;;;2.60;99.90;;;;;;5012020;28;20420;-66
2024/01/28 00:37:10;;;;;;;1999.90;999.90;;;2.60;99.90;;;;;;5012903;28;20193;-67
2024/01/28 00:39:36;;;;;;;1999.90;999.90;;;2.50;99.90;;;;;;5013105;28;20567;-68
2024/01/28 00:42:05;;;;;;;1999.90;999.90;;;2.50;99.90;;;;;;5013156;28;20169;-67
2024/01/28 00:44:31;;;;;;;1999.90;999.90;;;2.40;99.90;;;;;;5013070;28;20165;-67
2024/01/28 00:46:57;;;;;;;1999.90;999.90;;;2.40;99.90;;;;;;5012698;28;20204;-67
2024/01/28 00:49:32;;;;;;;1999.90;999.90;;;2.40;99.90;;;;;;5012999;28;20256;-67
2024/01/28 00:51:58;;;;;;;1999.90;999.90;;;2.30;99.90;;;;;;5013080;28;20171;-66
2024/01/28 00:54:24;;;;;;;1999.90;999.90;;;2.30;99.90;;;;;;5012902;28;20219;-66
2024/01/28 00:56:52;;;;;;;1999.90;999.90;;;2.30;99.90;;;;;;5012567;28;20200;-66
2024/01/28 00:59:18;;;;;;;1999.90;999.90;;;2.40;99.90;;;;;;5012728;28;20340;-65
2024/01/28 01:01:44;;;;;;;1999.90;999.90;;;3.20;99.90;;;;;;5012916;28;20169;-66
2024/01/28 01:04:09;;;;;;;1999.90;999.90;;;2.30;99.90;;;;;;5012695;28;20176;-65
2024/01/28 01:06:37;;;;;;;1999.90;999.90;;;2.30;99.90;;;;;;5012330;28;20197;-66
2024/01/28 01:09:03;;;;;;;1999.90;999.90;;;2.30;99.90;;;;;;5012718;28;20556;-67
2024/01/28 01:11:28;;;;;;;1999.90;999.90;;;2.20;99.90;;;;;;5012643;28;20179;-66
2024/01/28 01:13:54;;;;;;;1999.90;999.90;;;2.20;99.90;;;;;;5012515;28;20404;-65
2024/01/28 01:16:20;;;;;;;1999.90;999.90;;;2.00;99.90;;;;;;5012263;28;20169;-66
2024/01/28 01:18:47;;;;;;;1999.90;999.90;;;2.10;99.90;;;;;;5012582;28;20201;-66
2024/01/28 01:21:12;;;;;;;1999.90;999.90;;;2.00;99.90;;;;;;5012552;28;20196;-66
2024/01/28 01:23:38;;;;;;;1999.90;999.90;;;2.10;99.90;;;;;;5012516;28;20169;-66
2024/01/28 01:26:03;;;;;;;1999.90;999.90;;;1.90;99.90;;;;;;5012228;28;20543;-65
2024/01/28 01:28:32;;;;;;;1999.90;999.90;;;2.10;99.90;;;;;;5012207;28;20189;-67
2024/01/28 01:30:58;;;;;;;1999.90;999.90;;;1.90;99.90;;;;;;5012319;28;20169;-66
2024/01/28 01:33:24;;;;;;;1999.90;999.90;;;2.00;99.90;;;;;;5012380;28;20299;-66
2024/01/28 01:35:50;;;;;;;1999.90;999.90;;;1.90;99.90;;;;;;5012280;28;20256;-67
2024/01/28 01:38:15;;;;;;;1999.90;999.90;;;1.90;99.90;;;;;;5011858;28;20424;-66
2024/01/28 01:40:41;;;;;;;1999.90;999.90;;;2.00;99.90;;;;;;5011649;28;20168;-67
2024/01/28 01:43:09;;;;;;;1999.90;999.90;;;2.90;99.90;;;;;;5012194;28;20196;-66
2024/01/28 01:45:37;;;;;;;1999.90;999.90;;;1.90;99.90;;;;;;5012337;28;20181;-66
2024/01/28 01:48:21;;;;;;;1999.90;999.90;;;2.00;99.90;;;;;;5011944;28;20196;-66
2024/01/28 01:50:47;;;;;;;1999.90;999.90;;;1.80;99.90;;;;;;5012261;28;20168;-66
2024/01/28 01:53:13;;;;;;;1999.90;999.90;;;1.90;99.90;;;;;;5012028;28;20239;-66
2024/01/28 01:55:40;;;;;;;1999.90;999.90;;;2.60;99.90;;;;;;5012309;28;20165;-66
2024/01/28 01:58:07;;;;;;;1999.90;999.90;;;1.90;99.90;;;;;;5011798;28;20647;-66
2024/01/28 02:00:34;;;;;;;1999.90;999.90;;;2.00;99.90;;;;;;5011976;28;20673;-65
2024/01/28 02:03:01;;;;;;;1999.90;999.90;;;2.00;99.90;;;;;;5012023;28;20219;-66
2024/01/28 02:05:27;;;;;;;1999.90;999.90;;;2.00;99.90;;;;;;5011987;28;20645;-66
2024/01/28 02:07:53;;;;;;;1999.90;999.90;;;2.10;99.90;;;;;;5011640;28;20211;-66
2024/01/28 02:10:21;;;;;;;1999.90;999.90;;;2.00;99.90;;;;;;5011952;28;20844;-66
2024/01/28 02:12:49;;;;;;;1999.90;999.90;;;2.00;99.90;;;;;;5011932;28;20169;-66
2024/01/28 02:15:15;;;;;;;1999.90;999.90;;;1.90;99.90;;;;;;5011911;28;20173;-66
2024/01/28 02:17:41;;;;;;;1999.90;999.90;;;1.80;99.90;;;;;;5011614;28;20200;-66
2024/01/28 02:20:07;;;;;;;1999.90;999.90;;;1.70;99.90;;;;;;5011749;28;20193;-66
2024/01/28 02:22:33;;;;;;;1999.90;999.90;;;1.70;99.90;;;;;;5011900;28;20171;-66
2024/01/28 02:24:58;;;;;;;1999.90;999.90;;;1.80;99.90;;;;;;5011804;28;20411;-66
2024/01/28 02:27:24;;;;;;;1999.90;999.90;;;1.90;99.90;;;;;;5011464;28;20187;-66
2024/01/28 02:29:50;;;;;;;1999.90;999.90;;;1.70;99.90;;;;;;5011878;28;20255;-65
2024/01/28 02:32:17;;;;;;;1999.90;999.90;;;1.80;99.90;;;;;;5011712;28;20172;-66
2024/01/28 02:34:43;;;;;;;1999.90;999.90;;;1.70;99.90;;;;;;5011625;28;20197;-66
2024/01/28 02:37:11;;;;;;;1999.90;999.90;;;1.80;99.90;;;;;;5011310;28;20271;-66
2024/01/28 02:39:37;;;;;;;1999.90;999.90;;;1.70;99.90;;;;;;5011532;28;20291;-65
2024/01/28 02:42:03;;;;;;;1999.90;999.90;;;1.80;99.90;;;;;;5011524;28;20252;-66
2024/01/28 02:44:29;;;;;;;1999.90;999.90;;;1.60;99.90;;;;;;5011629;28;20598;-66
2024/01/28 02:46:55;;;;;;;1999.90;999.90;;;1.70;99.90;;;;;;5011468;28;20435;-65
2024/01/28 02:49:23;;;;;;;1999.90;999.90;;;1.80;99.90;;;;;;5011901;28;20665;-65
2024/01/28 02:51:51;;;;;;;1999.90;999.90;;;1.90;99.90;;;;;;5014151;28;20184;-66
2024/01/28 02:54:17;;;;;;;1999.90;999.90;;;1.70;99.90;;;;;;5015068;28;20192;-66
2024/01/28 02:56:43;;;;;;;1999.90;999.90;;;1.90;99.90;;;;;;5014736;28;20228;-66
2024/01/28 02:59:10;;;;;;;1999.90;999.90;;;1.60;99.90;;;;;;5015070;28;20195;-67
2024/01/28 03:01:45;;;;;;;1999.90;999.90;;;1.80;99.90;;;;;;5015053;28;20281;-66
2024/01/28 03:04:10;;;;;;;1999.90;999.90;;;1.70;99.90;;;;;;5014971;28;20645;-67
2024/01/28 03:06:36;;;;;;;1999.90;999.90;;;1.70;99.90;;;;;;5014621;28;20207;-66
2024/01/28 03:09:04;;;;;;;1999.90;999.90;;;1.80;99.90;;;;;;5015038;28;20572;-65
2024/01/28 03:11:30;;;;;;;1999.90;999.90;;;1.80;99.90;;;;;;5014756;28;20914;-66
2024/01/28 03:13:56;;;;;;;1999.90;999.90;;;1.60;99.90;;;;;;5014776;28;20184;-66
2024/01/28 03:16:21;;;;;;;1999.90;999.90;;;1.50;99.90;;;;;;5014346;28;20842;-66
2024/01/28 03:18:47;;;;;;;1999.90;999.90;;;1.60;99.90;;;;;;5014662;28;20197;-66
2024/01/28 03:21:13;;;;;;;1999.90;999.90;;;1.70;99.90;;;;;;5014663;28;20165;-67
2024/01/28 03:23:38;;;;;;;1999.90;999.90;;;1.70;99.90;;;;;;5014642;28;20644;-66
2024/01/28 03:26:04;;;;;;;1999.90;999.90;;;1.60;99.90;;;;;;5014439;28;20177;-66
2024/01/28 03:28:29;;;;;;;1999.90;999.90;;;1.40;99.90;;;;;;5014387;28;20675;-66
2024/01/28 03:30:55;;;;;;;1999.90;999.90;;;1.50;99.90;;;;;;5014633;28;20539;-67
2024/01/28 03:33:20;;;;;;;1999.90;999.90;;;1.50;99.90;;;;;;5014415;28;20165;-65
2024/01/28 03:35:46;;;;;;;1999.90;999.90;;;1.70;99.90;;;;;;5014467;28;20904;-66
2024/01/28 03:38:12;;;;;;;1999.90;999.90;;;1.60;99.90;;;;;;5014024;28;20185;-66
2024/01/28 03:40:37;;;;;;;1999.90;999.90;;;1.50;99.90;;;;;;5014318;28;20204;-66
2024/01/28 03:43:03;;;;;;;1999.90;999.90;;;1.60;99.90;;;;;;5014269;28;20162;-67
2024/01/28 03:45:28;;;;;;;1999.90;999.90;;;1.50;99.90;;;;;;5014156;28;20169;-66
2024/01/28 03:47:54;;;;;;;1999.90;999.90;;;1.60;99.90;;;;;;5014017;28;20192;-66
2024/01/28 03:50:21;;;;;;;1999.90;999.90;;;1.60;99.90;;;;;;5014109;28;20229;-65
2024/01/28 03:52:47;;;;;;;1999.90;999.90;;;1.60;99.90;;;;;;5014160;28;20188;-66
2024/01/28 03:55:12;;;;;;;1999.90;999.90;;;1.60;99.90;;;;;;5013970;28;20169;-66
2024/01/28 03:57:39;;;;;;;1999.90;999.90;;;1.60;99.90;;;;;;5013667;28;20279;-66
2024/01/28 04:00:06;;;;;;;1999.90;999.90;;;1.70;99.90;;;;;;5013815;28;20195;-65
2024/01/28 04:02:32;;;;;;;1999.90;999.90;;;1.60;99.90;;;;;;5013204;28;20188;-67
2024/01/28 04:04:58;;;;;;;1999.90;999.90;;;1.70;99.90;;;;;;5014085;28;20543;-67
2024/01/28 04:07:23;;;;;;;1999.90;999.90;;;1.70;99.90;;;;;;5013386;28;20206;-66
2024/01/28 04:09:49;;;;;;;1999.90;999.90;;;1.60;99.90;;;;;;5013860;28;20213;-65
2024/01/28 04:12:14;;;;;;;1999.90;999.90;;;1.80;99.90;;;;;;5013729;28;20177;-66
2024/01/28 04:14:40;;;;;;;1999.90;999.90;;;1.90;99.90;;;;;;5013637;28;20169;-66
2024/01/28 04:17:06;;;;;;;1999.90;999.90;;;1.80;99.90;;;;;;5013443;28;20189;-66
2024/01/28 04:19:31;;;;;;;1999.90;999.90;;;1.90;99.90;;;;;;5013590;28;20683;-66
2024/01/28 04:21:57;;;;;;;1999.90;999.90;;;1.90;99.90;;;;;;5013590;28;20169;-66
2024/01/28 04:24:22;;;;;;;1999.90;999.90;;;1.90;99.90;;;;;;5013400;28;20177;-66
2024/01/28 04:26:49;;;;;;;1999.90;999.90;;;2.30;99.90;;;;;;5013117;28;20664;-66
2024/01/28 04:29:14;;;;;;;1999.90;999.90;;;1.80;99.90;;;;;;5013373;28;20212;-66
2024/01/28 04:31:43;;;;;;;1999.90;999.90;;;1.80;99.90;;;;;;5013284;28;20208;-67
2024/01/28 04:34:10;;;;;;;1999.90;999.90;;;1.80;99.90;;;;;;5013434;28;20439;-66
2024/01/28 04:36:35;;;;;;;1999.90;999.90;;;1.70;99.90;;;;;;5013083;28;20263;-66
2024/01/28 04:39:02;;;;;;;1999.90;999.90;;;1.80;99.90;;;;;;5013145;28;20192;-65
2024/01/28 04:41:28;;;;;;;1999.90;999.90;;;1.70;99.90;;;;;;5013268;28;20248;-65
2024/01/28 04:43:54;;;;;;;1999.90;999.90;;;1.80;99.90;;;;;;5013140;28;20169;-66
2024/01/28 04:46:19;;;;;;;1999.90;999.90;;;1.80;99.90;;;;;;5012872;28;20280;-65
2024/01/28 04:48:45;;;;;;;1999.90;999.90;;;1.60;99.90;;;;;;5013021;28;20415;-66
2024/01/28 04:51:11;;;;;;;1999.90;999.90;;;1.80;99.90;;;;;;5013013;28;20169;-66
2024/01/28 04:53:37;;;;;;;1999.90;999.90;;;1.70;99.90;;;;;;5012883;28;20248;-66
2024/01/28 04:56:02;;;;;;;1999.90;999.90;;;1.70;99.90;;;;;;5012800;28;20177;-68
2024/01/28 04:58:28;;;;;;;1999.90;999.90;;;1.70;99.90;;;;;;5012885;28;20276;-66
2024/01/28 05:00:57;;;;;;;1999.90;999.90;;;1.70;99.90;;;;;;5012878;28;20400;-66
2024/01/28 05:03:22;;;;;;;1999.90;999.90;;;1.70;99.90;;;;;;5012757;28;20166;-66
2024/01/28 05:05:48;;;;;;;1999.90;999.90;;;1.60;99.90;;;;;;5012820;28;20559;-65
2024/01/28 05:08:14;;;;;;;1999.90;999.90;;;1.60;99.90;;;;;;5012295;28;20215;-66
2024/01/28 05:10:39;;;;;;;1999.90;999.90;;;1.60;99.90;;;;;;5012716;28;20188;-65
2024/01/28 05:13:05;;;;;;;1999.90;999.90;;;1.70;99.90;;;;;;5012536;28;20225;-66
2024/01/28 05:15:31;;;;;;;1999.90;999.90;;;1.60;99.90;;;;;;5012674;28;20661;-66
2024/01/28 05:17:56;;;;;;;1999.90;999.90;;;1.70;99.90;;;;;;5012498;28;20263;-66
2024/01/28 05:20:22;;;;;;;1999.90;999.90;;;1.70;99.90;;;;;;5012469;28;20200;-66
2024/01/28 05:22:48;;;;;;;1999.90;999.90;;;1.60;99.90;;;;;;5012469;28;20664;-65
2024/01/28 05:25:13;;;;;;;1999.90;999.90;;;1.50;99.90;;;;;;5012501;28;20173;-66
2024/01/28 05:27:40;;;;;;;1999.90;999.90;;;1.50;99.90;;;;;;5012061;28;20185;-67
2024/01/28 05:30:07;;;;;;;1999.90;999.90;;;1.50;99.90;;;;;;5012399;28;20169;-66
2024/01/28 05:32:33;;;;;;;1999.90;999.90;;;1.30;99.90;;;;;;5012338;28;20173;-66
2024/01/28 05:35:03;;;;;;;1999.90;999.90;;;1.40;99.90;;;;;;5012355;28;20252;-65
2024/01/28 05:37:28;;;;;;;1999.90;999.90;;;1.50;99.90;;;;;;5012008;28;20427;-65
2024/01/28 05:39:54;;;;;;;1999.90;999.90;;;1.60;99.90;;;;;;5012270;28;20197;-66
2024/01/28 05:42:19;;;;;;;1999.90;999.90;;;1.40;99.90;;;;;;5012132;28;20165;-67
2024/01/28 05:44:45;;;;;;;1999.90;999.90;;;1.50;99.90;;;;;;5012218;28;20521;-66
2024/01/28 05:47:10;;;;;;;1999.90;999.90;;;1.40;99.90;;;;;;5011903;28;20250;-65
2024/01/28 05:49:36;;;;;;;1999.90;999.90;;;1.30;99.90;;;;;;5012140;28;20184;-66
2024/01/28 05:52:02;;;;;;;1999.90;999.90;;;1.20;99.90;;;;;;5012095;28;20176;-66
2024/01/28 05:54:30;;;;;;;1999.90;999.90;;;1.10;99.90;;;;;;5012084;28;20534;-67
2024/01/28 05:56:55;;;;;;;1999.90;999.90;;;1.20;99.90;;;;;;5011727;28;20203;-66
2024/01/28 05:59:21;;;;;;;1999.90;999.90;;;1.30;99.90;;;;;;5012000;28;20598;-66
2024/01/28 06:01:47;;;;;;;1999.90;999.90;;;1.40;99.90;;;;;;5012116;28;20670;-67
2024/01/28 06:04:12;;;;;;;1999.90;999.90;;;1.30;99.90;;;;;;5012011;28;20252;-67
2024/01/28 06:06:38;;;;;;;1999.90;999.90;;;1.20;99.90;;;;;;5011562;28;20334;-67
2024/01/28 06:09:04;;;;;;;1999.90;999.90;;;1.30;99.90;;;;;;5012047;28;20165;-68
2024/01/28 06:11:30;;;;;;;1999.90;999.90;;;1.10;99.90;;;;;;5011929;28;20563;-68
2024/01/28 06:13:56;;;;;;;1999.90;999.90;;;1.20;1.00;;;;;;5012103;28;20185;-66
2024/01/28 06:16:21;;;;;;;1999.90;999.90;;;1.20;1.00;;;;;;5011641;28;20655;-65
2024/01/28 06:18:47;;;;;;;1999.90;999.90;;;1.20;1.00;;;;;;5011873;28;20197;-69
2024/01/28 06:21:13;;;;;;;1999.90;999.90;;;1.30;1.00;;;;;;5011846;28;20180;-67
2024/01/28 06:23:40;;;;;;;1999.90;999.90;;;1.30;99.90;;;;;;5011803;28;20163;-68
2024/01/28 06:26:06;;;;;;;1999.90;999.90;;;1.30;99.90;;;;;;5012924;28;20179;-67
2024/01/28 06:28:32;;;;;;;1999.90;999.90;;;1.20;99.90;;;;;;5015556;28;20621;-67
2024/01/28 06:30:58;;;;;;;1999.90;999.90;;;1.20;99.90;;;;;;5015641;28;20200;-68
2024/01/28 06:33:24;;;;;;;1999.90;999.90;;;1.30;99.90;;;;;;5015556;28;20248;-68
2024/01/28 06:35:49;;;;;;;1999.90;999.90;;;1.30;99.90;;;;;;5015503;28;20216;-68
2024/01/28 06:38:15;;;;;;;1999.90;999.90;;;1.40;99.90;;;;;;5015208;28;20189;-67
2024/01/28 06:40:41;;;;;;;1999.90;999.90;;;1.30;99.90;;;;;;5015280;28;20588;-68
2024/01/28 06:43:07;;;;;;;1999.90;999.90;;;1.10;99.90;;;;;;5015634;28;20426;-67
2024/01/28 06:45:32;;;;;;;1999.90;999.90;;;1.40;99.90;;;;;;5015353;28;20164;-67
2024/01/28 06:47:58;;;;;;;1999.90;999.90;;;1.30;99.90;;;;;;5014996;28;20223;-68
2024/01/28 06:50:23;;;;;;;1999.90;999.90;;;1.10;99.90;;;;;;5015272;28;20165;-68
2024/01/28 06:52:49;;;;;;;1999.90;999.90;;;1.30;99.90;;;;;;5015177;28;20165;-67
2024/01/28 06:55:15;;;;;;;1999.90;999.90;;;1.20;99.90;;;;;;5027339;28;20184;-67
2024/01/28 06:57:40;;;;;;;1999.90;999.90;;;1.00;99.90;;;;;;5034655;28;20199;-68
2024/01/28 07:00:10;;;;;;;1999.90;999.90;;;1.30;99.90;;;;;;5034821;28;20262;-68
2024/01/28 07:02:36;;;;;;;1999.90;999.90;;;1.00;99.90;;;;;;5034812;28;20646;-67
2024/01/28 07:05:02;;;;;;;1999.90;999.90;;;1.10;99.90;;;;;;5034758;28;20231;-68
2024/01/28 07:07:27;;;;;;;1999.90;999.90;;;1.20;99.90;;;;;;5034547;28;20231;-68
2024/01/28 07:09:53;;;;;;;1999.90;999.90;;;1.30;99.90;;;;;;5034681;28;20543;-66
2024/01/28 07:12:18;;;;;;;1999.90;999.90;;;1.30;99.90;;;;;;5034606;28;20176;-69
2024/01/28 07:14:44;;;;;;;1999.90;999.90;;;1.30;99.90;;;;;;5034621;28;20251;-68
2024/01/28 07:17:10;;;;;;;1999.90;999.90;;;1.30;99.90;;;;;;5034274;28;20188;-67
2024/01/28 07:19:35;;;;;;;1999.90;999.90;;;1.20;99.90;;;;;;5034342;28;20192;-67
2024/01/28 07:22:01;;;;;;;1999.90;999.90;;;1.40;99.90;;;;;;5034533;28;20503;-67
2024/01/28 07:24:27;;;;;;;1999.90;999.90;;;1.40;99.90;;;;;;5034361;28;20157;-67
2024/01/28 07:26:52;;;;;;;1999.90;999.90;;;1.20;99.90;;;;;;5033993;28;20570;-68
2024/01/28 07:29:18;;;;;;;1999.90;999.90;;;1.30;99.90;;;;;;5034374;28;20164;-67
2024/01/28 07:31:43;;;;;;;1999.90;999.90;;;1.30;99.90;;;;;;5034294;28;20226;-68
2024/01/28 07:34:09;;;;;;;1999.90;999.90;;;1.30;99.90;;;;;;5034231;28;20173;-66
2024/01/28 07:36:35;;;;;;;1999.90;999.90;;;1.40;99.90;;;;;;5033527;28;20192;-68
2024/01/28 07:39:00;;;;;;;1999.90;999.90;;;1.50;99.90;;;;;;5033190;28;20192;-67
2024/01/28 07:41:26;;;;;;;1999.90;999.90;;;1.40;99.90;;;;;;5034266;28;20176;-67
2024/01/28 07:43:52;;;;;;;1999.90;999.90;;;1.60;99.90;;;;;;5034321;28;20160;-68
2024/01/28 07:46:18;;;;;;;1999.90;999.90;;;1.40;1.00;;;;;;5033826;28;20167;-68
2024/01/28 07:48:43;;;;;;;1999.90;999.90;;;1.60;99.90;;;;;;5033888;28;20165;-68
2024/01/28 07:51:09;;;;;;;1999.90;999.90;;;1.70;99.90;;;;;;5033960;28;20169;-68
2024/01/28 07:53:35;;;;;;;1999.90;999.90;;;1.60;99.90;;;;;;5033834;28;20171;-67
2024/01/28 07:56:02;;;;;;;1999.90;999.90;;;1.60;99.90;;;;;;5033907;28;20168;-68
2024/01/28 07:58:28;;;;;;;1999.90;999.90;;;1.70;99.90;;;;;;5033850;28;20199;-68
2024/01/28 08:00:55;;;;;;;1999.90;999.90;;;1.80;99.90;;;;;;5033819;28;20526;-67
2024/01/28 08:03:21;;;;;;;1999.90;999.90;;;1.90;99.90;;;;;;5033606;28;20486;-67
2024/01/28 08:05:47;;;;;;;1999.90;999.90;;;2.00;99.90;;;;;;5033624;28;20231;-68
2024/01/28 08:08:13;;;;;;;1999.90;999.90;;;1.90;99.90;;;;;;5033191;28;20207;-68
2024/01/28 08:10:38;;;;;;;1999.90;999.90;;;1.90;99.90;;;;;;5033579;28;20437;-67
2024/01/28 08:13:04;;;;;;;1999.90;999.90;;;2.10;99.90;;;;;;5033565;28;20168;-68
2024/01/28 08:15:30;;;;;;;1999.90;999.90;;;2.20;99.90;;;;;;5033476;28;20219;-67
2024/01/28 08:17:56;;;;;;;1999.90;999.90;;;2.20;99.90;;;;;;5033199;28;20451;-67
2024/01/28 08:20:22;;;;;;;1999.90;999.90;;;2.30;99.90;;;;;;5033387;28;20736;-68
2024/01/28 08:22:47;;;;;;;1999.90;999.90;;;2.10;99.90;;;;;;5033259;28;20411;-68
2024/01/28 08:25:13;;;;;;;1999.90;999.90;;;2.30;99.90;;;;;;5033315;28;20164;-68
2024/01/28 08:27:39;;;;;;;1999.90;999.90;;;2.40;99.90;;;;;;5032932;28;20657;-68
2024/01/28 08:30:08;;;;;;;1999.90;999.90;;;2.30;99.90;;;;;;5033165;28;20204;-67
2024/01/28 08:32:34;;;;;;;1999.90;999.90;;;2.40;99.90;;;;;;5033206;28;20263;-68
2024/01/28 08:35:00;;;;;;;1999.90;999.90;;;2.60;99.90;;;;;;5033098;28;20255;-68
2024/01/28 08:37:26;;;;;;;1999.90;999.90;;;3.10;99.90;;;;;;5032759;28;20358;-68
2024/01/28 08:39:51;;;;;;;1999.90;999.90;;;2.70;99.90;;;;;;5032990;28;20208;-67
2024/01/28 08:42:18;;;;;;;1999.90;999.90;;;2.80;84.60;;;;;;5032887;28;20921;-67
2024/01/28 08:44:44;;;;;;;1999.90;999.90;;;2.80;15.30;;;;;;5033016;28;20664;-68
2024/01/28 08:47:12;;;;;;;1999.90;999.90;;;2.90;1.00;;;;;;5032563;28;20216;-68
2024/01/28 08:49:37;;;;;;;1999.90;999.90;;;3.00;1.00;;;;;;5032436;28;20482;-67
2024/01/28 08:52:03;;;;;;;1999.90;999.90;;;3.00;1.00;;;;;;5032784;28;20180;-67
2024/01/28 08:54:30;;;;;;;1999.90;999.90;;;3.10;1.00;;;;;;5032724;28;20218;-66
2024/01/28 08:56:59;;;;;;;1999.90;999.90;;;3.20;99.90;;;;;;5032282;28;20191;-67
2024/01/28 08:59:25;;;;;;;1999.90;999.90;;;3.30;99.90;;;;;;5032569;28;20698;-66
2024/01/28 09:01:51;;;;;;;1999.90;999.90;;;3.40;99.90;;;;;;5032552;28;20434;-66
2024/01/28 09:04:17;;;;;;;1999.90;999.90;;;3.50;99.90;;;;;;5032474;28;20212;-68
2024/01/28 09:06:43;;;;;;;1999.90;999.90;;;3.50;99.90;;;;;;5032030;28;20200;-68
2024/01/28 09:09:09;;;;;;;1999.90;999.90;;;3.60;99.90;;;;;;5032512;28;20183;-67
2024/01/28 09:11:35;;;;;;;1999.90;999.90;;;3.60;1.00;;;;;;5032422;28;20180;-66
2024/01/28 09:14:01;;;;;;;1999.90;999.90;;;3.70;99.90;;;;;;5032376;28;20434;-66
2024/01/28 09:16:27;;;;;;;1999.90;999.90;;;3.70;1.00;;;;;;5032130;28;20418;-67
2024/01/28 09:18:53;;;;;;;1999.90;999.90;;;4.30;99.90;;;;;;5032237;28;20450;-67
2024/01/28 09:21:18;;;;;;;1999.90;999.90;;;3.90;1.00;;;;;;5032318;28;20553;-67
2024/01/28 09:23:44;;;;;;;1999.90;999.90;;;4.00;1.00;;;;;;5032284;28;20543;-68
2024/01/28 09:26:09;;;;;;;1999.90;999.90;;;4.00;99.90;;;;;;5032103;28;20179;-68
2024/01/28 09:28:35;;;;;;;1999.90;999.90;;;4.00;99.90;;;;;;5032226;28;20200;-67
2024/01/28 09:31:01;;;;;;;1999.90;999.90;;;4.10;1.00;;;;;;5032174;28;20172;-68
2024/01/28 09:33:27;;;;;;;1999.90;999.90;;;4.30;1.00;;;;;;5032055;28;20226;-68
2024/01/28 09:35:53;;;;;;;1999.90;999.90;;;4.40;99.90;;;;;;5032148;28;20164;-69
2024/01/28 09:38:19;;;;;;;1999.90;999.90;;;4.40;99.90;;;;;;5031759;28;20503;-68
2024/01/28 09:40:44;;;;;;;1999.90;999.90;;;4.50;99.90;;;;;;5031956;28;20211;-68
2024/01/28 09:43:22;;;;;;;1999.90;999.90;;;4.70;1.00;;;;;;5032019;28;20226;-68
2024/01/28 09:45:48;;;;;;;1999.90;999.90;;;4.60;99.90;;;;;;5031803;28;20460;-68
2024/01/28 09:48:15;;;;;;;1999.90;999.90;;;4.70;19.40;;;;;;5031550;28;20418;-68
2024/01/28 09:50:41;;;;;;;1999.90;999.90;;;4.80;1.00;;;;;;5023768;28;20416;-67
2024/01/28 09:53:07;;;;;;;1999.90;999.90;;;4.90;99.90;;;;;;5012277;28;20412;-68
2024/01/28 09:55:33;;;;;;;1999.90;999.90;;;5.00;99.90;;;;;;5012084;28;20172;-67
2024/01/28 09:57:59;;;;;;;1999.90;999.90;;;5.00;49.10;;;;;;5011796;28;20795;-68
2024/01/28 10:00:25;;;;;;;1999.90;999.90;;;5.10;39.70;;;;;;5010862;28;20456;-67
2024/01/28 10:02:51;;;;;;;1999.90;999.90;;;5.10;1.10;;;;;;5015979;28;20176;-68
2024/01/28 10:05:16;;;;;;;1999.90;999.90;;;5.20;1.00;;;;;;5016104;28;20411;-67
2024/01/28 10:07:50;;;;;;;1999.90;999.90;;;5.30;1.00;;;;;;5016434;28;20263;-68
2024/01/28 10:10:17;;;;;;;1999.90;999.90;;;5.50;99.90;;;;;;5019327;28;20688;-70
2024/01/28 10:12:50;;;;;;;1999.90;999.90;;;5.60;99.90;;;;;;5016690;28;20419;-68
2024/01/28 10:15:23;;;;;;;1999.90;999.90;;;5.60;1.00;;;;;;5016457;28;20400;-68
2024/01/28 10:17:49;;;;;;;1999.90;999.90;;;5.90;99.90;;;;;;5015588;28;20439;-68
2024/01/28 10:20:22;;;;;;;1999.90;999.90;;;6.10;99.90;;;;;;5016925;28;20824;-68
2024/01/28 10:22:48;;;;;;;1999.90;999.90;;;6.60;1.00;;;;;;5016767;28;20400;-69
2024/01/28 10:25:15;;;;;;;1999.90;999.90;;;6.10;1.00;;;;;;5016005;28;20418;-69
2024/01/28 10:27:47;;;;;;;1999.90;999.90;;;6.10;1.00;;;;;;5015267;28;20522;-69
2024/01/28 10:30:15;;;;;;;1999.90;999.90;;;6.30;1.00;;;;;;5015605;28;20935;-66
2024/01/28 10:32:42;;;;;;;1999.90;999.90;;;6.60;1.00;;;;;;5015600;28;20493;-66
2024/01/28 10:35:09;;;;;;;1999.90;999.90;;;6.60;1.00;;;;;;5015599;28;20427;-66
2024/01/28 10:37:35;;;;;;;1999.90;999.90;;;6.50;1.00;;;;;;5015175;28;20432;-67
2024/01/28 10:40:05;;;;;;;1999.90;999.90;;;6.60;99.90;;;;;;5015398;28;20483;-66
2024/01/28 10:42:37;;;;;;;1999.90;999.90;;;6.50;99.90;;;;;;5015511;28;20407;-66
2024/01/28 10:45:08;;;;;;;1999.90;999.90;;;6.80;99.90;;;;;;5015245;28;20458;-67
2024/01/28 10:47:36;;;;;;;1999.90;999.90;;;6.70;99.90;;;;;;5010013;28;20427;-67
2024/01/28 10:50:10;;;;;;;1999.90;999.90;;;7.00;99.90;;;;;;5014638;28;20403;-67
2024/01/28 10:52:38;;;;;;;1999.90;999.90;;;6.90;85.80;;;;;;5014318;28;20423;-66
2024/01/28 10:55:05;;;;;;;1999.90;999.90;;;7.80;90.60;;;;;;5014596;28;20412;-66
2024/01/28 10:57:39;;;;;;;1999.90;999.90;;;7.20;99.90;;;;;;5014763;28;20805;-66
2024/01/28 11:00:05;;;;;;;1999.90;999.90;;;7.30;1.00;;;;;;5013969;28;20505;-66
2024/01/28 11:02:33;;;;;;;1999.90;999.90;;;7.40;1.00;;;;;;5014430;28;20412;-67
2024/01/28 11:04:59;;;;;;;1999.90;999.90;;;7.80;1.00;;;;;;5048698;23;20864;-70
2024/01/28 11:07:26;;;;;;;1999.90;999.90;;;7.90;99.90;;;;;;4997599;28;20402;-70
2024/01/28 11:09:52;;;;;;;1999.90;999.90;;;8.80;99.90;;;;;;4997838;28;20484;-72
2024/01/28 11:12:20;;;;;;;1999.90;999.90;;;7.90;99.90;;;;;;4998632;28;20455;-71
2024/01/28 11:14:46;;;;;;;1999.90;999.90;;;8.80;99.90;;;;;;5002459;28;20439;-70
2024/01/28 11:17:12;;;;;;;1999.90;999.90;;;9.00;99.90;;;;;;5016959;28;20407;-72
2024/01/28 11:19:38;;;;;;;1999.90;999.90;;;9.60;99.90;;;;;;5016784;28;20452;-71
2024/01/28 11:22:04;;;;;;;1999.90;999.90;;;8.30;99.90;;;;;;5017209;28;20408;-71
2024/01/28 11:24:30;;;;;;;1999.90;999.90;;;8.30;6.30;;;;;;5016921;28;20165;-70
2024/01/28 11:26:58;;;;;;;1999.90;999.90;;;8.80;99.90;;;;;;5017029;28;20166;-72
2024/01/28 11:29:32;;;;;;;1999.90;999.90;;;8.70;99.90;;;;;;5016944;28;20253;-72
2024/01/28 11:32:06;;;;;;;1999.90;999.90;;;8.90;99.90;;;;;;5016633;28;20943;-72
2024/01/28 11:34:32;;;;;;;1999.90;999.90;;;8.90;1.00;;;;;;5016962;28;20403;-71
2024/01/28 11:36:59;;;;;;;1999.90;999.90;;;9.10;55.40;;;;;;5017390;28;20406;-70
2024/01/28 11:39:42;;;;;;;1999.90;999.90;;;9.60;94.70;;;;;;5017200;28;20257;-72
2024/01/28 11:42:08;;;;;;;1999.90;999.90;;;9.60;1.00;;;;;;5017851;28;20414;-70
2024/01/28 11:44:34;;;;;;;1999.90;999.90;;;10.80;99.90;;;;;;5018461;28;20438;-70
2024/01/28 11:47:02;;;;;;;1999.90;999.90;;;11.10;1.00;;;;;;5017353;28;20411;-71
2024/01/28 11:49:28;;;;;;;1999.90;999.90;;;11.50;99.90;;;;;;5018080;28;20172;-71
2024/01/28 11:51:54;;;;;;;1999.90;999.90;;;12.30;99.90;;;;;;5019131;28;20435;-72
2024/01/28 11:54:19;;;;;;;1999.90;999.90;;;12.90;99.90;;;;;;5019297;28;20416;-72
2024/01/28 11:56:45;;;;;;;1999.90;999.90;;;13.40;99.90;;;;;;5019410;28;20167;-71
2024/01/28 11:59:11;;;;;;;1999.90;999.90;;;13.80;99.90;;;;;;5019410;28;20255;-72
2024/01/28 12:01:37;;;;;;;1999.90;999.90;;;14.20;99.90;;;;;;5020053;28;20411;-72
2024/01/28 12:04:03;;;;;;;1999.90;999.90;;;14.80;99.90;;;;;;5020882;28;20492;-71